createdAt,value
2022-08-20T00:01:42.075Z,6.40
2022-08-20T00:04:09.373Z,6.93
2022-08-20T00:06:36.748Z,6.30
2022-08-20T00:09:04.673Z,6.72
2022-08-20T00:11:33.645Z,8.07
2022-08-20T00:14:04.864Z,6.72
2022-08-20T00:16:34.981Z,6.72
2022-08-20T00:19:27.158Z,6.47
2022-08-20T00:21:58.051Z,6.97
2022-08-20T00:24:26.511Z,6.70
2022-08-20T00:26:53.709Z,6.95
2022-08-20T00:29:24.754Z,6.60
2022-08-20T00:31:51.920Z,6.63
2022-08-20T00:34:19.236Z,6.57
2022-08-20T00:36:47.021Z,7.10
2022-08-20T00:39:15.989Z,6.40
2022-08-20T00:42:02.279Z,7.03
2022-08-20T00:48:56.048Z,6.20
2022-08-20T00:51:30.689Z,6.35
2022-08-20T00:54:11.028Z,6.22
2022-08-20T00:56:40.868Z,6.30
2022-08-20T00:59:12.737Z,7.33
2022-08-20T01:01:55.490Z,6.10
2022-08-20T01:04:27.897Z,6.72
2022-08-20T01:06:55.800Z,5.80
2022-08-20T01:09:49.784Z,5.88
2022-08-20T01:12:12.475Z,5.97
2022-08-20T01:14:47.520Z,5.93
2022-08-20T01:17:19.013Z,5.97
2022-08-20T01:20:01.014Z,6.10
2022-08-20T01:26:19.387Z,5.80
2022-08-20T01:29:09.054Z,6.65
2022-08-20T01:31:38.618Z,6.00
2022-08-20T01:34:08.996Z,5.88
2022-08-20T01:36:46.290Z,5.90
2022-08-20T01:39:21.321Z,6.40
2022-08-20T01:41:57.075Z,6.55
2022-08-20T01:44:29.729Z,6.57
2022-08-20T01:47:10.480Z,6.35
2022-08-20T01:49:44.002Z,6.65
2022-08-20T01:52:19.952Z,6.20
2022-08-20T01:54:47.162Z,5.82
2022-08-20T01:57:17.089Z,6.07
2022-08-20T01:59:45.216Z,5.65
2022-08-20T02:02:12.967Z,6.72
2022-08-20T02:04:41.027Z,5.80
2022-08-20T02:07:14.907Z,5.93
2022-08-20T02:09:42.277Z,5.72
2022-08-20T02:12:10.814Z,6.45
2022-08-20T02:14:46.932Z,5.85
2022-08-20T02:17:15.643Z,5.73
2022-08-20T02:20:11.091Z,5.68
2022-08-20T02:22:50.335Z,6.18
2022-08-20T02:25:19.925Z,5.47
2022-08-20T02:27:52.087Z,5.90
2022-08-20T02:30:27.778Z,5.70
2022-08-20T02:32:59.458Z,4.95
2022-08-20T02:35:27.417Z,5.28
2022-08-20T02:37:55.293Z,4.97
2022-08-20T02:40:27.178Z,5.25
2022-08-20T02:42:59.142Z,5.10
2022-08-20T02:45:26.475Z,5.25
2022-08-20T02:47:54.217Z,5.35
2022-08-20T02:50:22.509Z,5.40
2022-08-20T02:52:51.676Z,5.15
2022-08-20T02:55:27.937Z,4.70
2022-08-20T02:57:59.092Z,4.85
2022-08-20T03:00:32.202Z,5.68
2022-08-20T03:03:08.146Z,4.97
2022-08-20T03:05:36.551Z,5.38
2022-08-20T03:08:08.466Z,5.00
2022-08-20T03:10:36.656Z,5.63
2022-08-20T03:13:05.167Z,5.28
2022-08-20T03:15:33.934Z,5.30
2022-08-20T03:18:01.233Z,5.10
2022-08-20T03:20:29.070Z,4.83
2022-08-20T03:22:56.829Z,5.32
2022-08-20T03:25:24.186Z,5.80
2022-08-20T03:27:55.022Z,5.50
2022-08-20T03:30:24.244Z,5.90
2022-08-20T03:32:51.634Z,4.77
2022-08-20T03:35:21.244Z,5.30
2022-08-20T03:37:48.866Z,5.20
2022-08-20T03:40:38.719Z,5.20
2022-08-20T03:43:08.861Z,5.43
2022-08-20T03:45:38.594Z,5.63
2022-08-20T03:48:07.823Z,5.78
2022-08-20T03:50:35.370Z,5.47
2022-08-20T03:53:02.615Z,5.57
2022-08-20T03:55:32.179Z,5.25
2022-08-20T03:58:03.825Z,5.90
2022-08-20T04:03:28.874Z,5.65
2022-08-20T04:05:56.009Z,5.63
2022-08-20T04:08:26.855Z,5.40
2022-08-20T04:10:57.628Z,6.00
2022-08-20T04:13:25.987Z,5.90
2022-08-20T04:15:55.564Z,6.22
2022-08-20T04:18:25.794Z,6.00
2022-08-20T04:20:53.883Z,6.32
2022-08-20T04:23:22.287Z,6.27
2022-08-20T04:25:49.805Z,6.00
2022-08-20T04:28:30.034Z,6.40
2022-08-20T04:30:59.890Z,6.78
2022-08-20T04:33:33.927Z,6.28
2022-08-20T04:36:06.078Z,6.00
2022-08-20T04:38:50.428Z,6.88
2022-08-20T04:41:23.252Z,6.65
2022-08-20T04:43:56.137Z,5.97
2022-08-20T04:46:28.504Z,6.90
2022-08-20T04:48:56.688Z,6.70
2022-08-20T04:51:24.493Z,6.53
2022-08-20T04:56:45.529Z,6.32
2022-08-20T04:59:12.605Z,6.63
2022-08-20T05:01:39.788Z,6.10
2022-08-20T05:04:06.974Z,5.93
2022-08-20T05:06:38.605Z,6.00
2022-08-20T05:09:05.824Z,6.45
2022-08-20T05:11:36.754Z,6.90
2022-08-20T05:14:08.585Z,6.40
2022-08-20T05:16:38.434Z,6.72
2022-08-20T05:19:09.096Z,6.55
2022-08-20T05:21:37.845Z,6.32
2022-08-20T05:28:32.868Z,6.67
2022-08-20T05:31:07.196Z,5.85
2022-08-20T05:33:34.302Z,6.25
2022-08-20T05:36:02.091Z,6.00
2022-08-20T05:38:29.319Z,5.30
2022-08-20T05:40:56.577Z,5.33
2022-08-20T05:43:24.192Z,5.65
2022-08-20T05:45:56.070Z,6.70
2022-08-20T05:48:25.461Z,5.20
2022-08-20T05:50:54.483Z,6.03
2022-08-20T05:53:23.338Z,5.43
2022-08-20T05:55:50.685Z,6.28
2022-08-20T05:58:26.266Z,6.07
2022-08-20T06:00:54.846Z,6.95
2022-08-20T06:03:58.136Z,6.60
2022-08-20T06:06:45.071Z,6.40
2022-08-20T06:09:12.749Z,6.75
2022-08-20T06:11:39.872Z,7.63
2022-08-20T06:14:07.068Z,7.63
2022-08-20T06:16:34.329Z,7.68
2022-08-20T06:19:11.342Z,7.80
2022-08-20T06:21:40.411Z,7.32
2022-08-20T06:24:08.405Z,7.70
2022-08-20T06:26:36.358Z,7.60
2022-08-20T06:29:06.881Z,8.00
2022-08-20T06:31:35.104Z,7.30
2022-08-20T06:34:02.212Z,7.68
2022-08-20T06:36:29.317Z,6.60
2022-08-20T06:38:58.322Z,7.30
2022-08-20T06:41:35.992Z,7.97
2022-08-20T06:44:07.522Z,6.60
2022-08-20T06:46:36.191Z,7.60
2022-08-20T06:49:05.961Z,7.38
2022-08-20T06:51:34.368Z,7.30
2022-08-20T06:54:01.482Z,8.07
2022-08-20T06:56:28.601Z,7.30
2022-08-20T06:58:55.770Z,8.25
2022-08-20T07:01:23.056Z,8.45
2022-08-20T07:03:54.125Z,7.95
2022-08-20T07:06:25.818Z,9.27
2022-08-20T07:08:55.250Z,8.10
2022-08-20T07:11:27.355Z,7.65
2022-08-20T07:13:58.776Z,8.68
2022-08-20T07:16:27.243Z,7.88
2022-08-20T07:18:54.508Z,8.15
2022-08-20T07:21:21.626Z,9.20
2022-08-20T07:23:49.441Z,9.45
2022-08-20T07:26:17.327Z,8.90
2022-08-20T07:28:44.545Z,9.05
2022-08-20T07:31:31.314Z,7.70
2022-08-20T07:33:59.799Z,8.37
2022-08-20T07:36:27.346Z,8.70
2022-08-20T07:38:54.682Z,8.68
2022-08-20T07:41:24.110Z,9.00
2022-08-20T07:43:51.300Z,8.57
2022-08-20T07:46:21.582Z,7.87
2022-08-20T07:48:50.644Z,8.15
2022-08-20T07:51:19.986Z,7.65
2022-08-20T07:53:48.694Z,6.70
2022-08-20T07:56:21.308Z,7.55
2022-08-20T07:58:52.420Z,7.93
2022-08-20T08:01:22.471Z,7.28
2022-08-20T08:03:50.706Z,6.70
2022-08-20T08:06:29.741Z,6.05
2022-08-20T08:09:02.246Z,6.03
2022-08-20T08:11:29.854Z,5.00
2022-08-20T08:13:58.585Z,6.13
2022-08-20T08:16:25.802Z,6.53
2022-08-20T08:18:56.935Z,6.57
2022-08-20T08:21:25.218Z,6.18
2022-08-20T08:23:53.442Z,5.63
2022-08-20T08:26:22.415Z,5.75
2022-08-20T08:28:49.522Z,4.85
2022-08-20T08:31:16.758Z,5.50
2022-08-20T08:33:43.934Z,4.95
2022-08-20T08:36:13.616Z,4.30
2022-08-20T08:38:43.648Z,4.47
2022-08-20T08:41:13.867Z,4.55
2022-08-20T08:43:46.680Z,4.75
2022-08-20T08:46:18.208Z,4.43
2022-08-20T08:48:47.805Z,4.27
2022-08-20T08:51:24.246Z,3.97
2022-08-20T08:53:54.783Z,3.83
2022-08-20T08:56:28.773Z,3.70
2022-08-20T08:59:00.707Z,3.63
2022-08-20T09:01:55.233Z,3.90
2022-08-20T09:04:21.765Z,3.83
2022-08-20T09:06:53.464Z,3.70
2022-08-20T09:09:31.443Z,3.65
2022-08-20T09:12:20.429Z,3.78
2022-08-20T09:14:48.936Z,2.90
2022-08-20T09:17:17.278Z,2.90
2022-08-20T09:19:45.768Z,3.05
2022-08-20T09:22:15.890Z,2.88
2022-08-20T09:24:44.137Z,2.78
2022-08-20T09:27:12.075Z,2.10
2022-08-20T09:29:39.697Z,2.38
2022-08-20T09:32:11.148Z,2.65
2022-08-20T09:34:44.856Z,2.58
2022-08-20T09:37:12.670Z,2.50
2022-08-20T09:39:40.517Z,2.10
2022-08-20T09:42:14.433Z,2.67
2022-08-20T09:44:41.697Z,3.10
2022-08-20T09:47:10.289Z,2.80
2022-08-20T09:49:38.315Z,2.75
2022-08-20T09:52:08.256Z,3.13
2022-08-20T09:54:36.715Z,3.22
2022-08-20T09:57:06.665Z,2.90
2022-08-20T09:59:35.353Z,3.25
2022-08-20T10:02:03.485Z,3.00
2022-08-20T10:04:32.587Z,3.27
2022-08-20T10:06:59.672Z,3.22
2022-08-20T10:09:26.885Z,3.00
2022-08-20T10:11:54.017Z,3.00
2022-08-20T10:14:21.118Z,3.15
2022-08-20T10:16:59.980Z,3.50
2022-08-20T10:19:30.192Z,3.60
2022-08-20T10:21:58.448Z,4.07
2022-08-20T10:24:26.078Z,3.78
2022-08-20T10:28:02.508Z,3.60
2022-08-20T10:30:54.931Z,3.07
2022-08-20T10:33:22.068Z,2.88
2022-08-20T10:35:49.282Z,3.78
2022-08-20T10:38:21.488Z,2.90
2022-08-20T10:40:52.209Z,3.13
2022-08-20T10:43:19.872Z,2.80
2022-08-20T10:45:47.068Z,2.67
2022-08-20T10:48:17.210Z,2.17
2022-08-20T10:51:12.808Z,2.47
2022-08-20T10:53:40.816Z,2.00
2022-08-20T10:56:07.929Z,2.60
2022-08-20T10:58:39.673Z,2.20
2022-08-20T11:01:08.982Z,2.42
2022-08-20T11:03:36.223Z,2.72
2022-08-20T11:06:03.790Z,2.10
2022-08-20T11:08:34.494Z,2.30
2022-08-20T11:11:04.725Z,2.40
2022-08-20T11:13:33.047Z,2.35
2022-08-20T11:16:01.278Z,2.75
2022-08-20T11:18:29.405Z,1.85
2022-08-20T11:20:57.320Z,1.70
2022-08-20T11:23:24.739Z,2.20
2022-08-20T11:25:52.061Z,2.20
2022-08-20T11:28:31.780Z,1.98
2022-08-20T11:31:00.528Z,1.98
2022-08-20T11:33:27.626Z,2.97
2022-08-20T11:35:55.621Z,1.98
2022-08-20T11:38:23.725Z,2.30
2022-08-20T11:40:50.930Z,2.50
2022-08-20T11:43:18.542Z,2.17
2022-08-20T11:45:52.866Z,1.77
2022-08-20T11:48:20.553Z,2.10
2022-08-20T11:50:48.767Z,2.47
2022-08-20T11:53:16.222Z,2.80
2022-08-20T11:55:44.096Z,2.13
2022-08-20T11:58:11.702Z,2.30
2022-08-20T12:00:39.188Z,2.10
2022-08-20T12:03:09.130Z,2.80
2022-08-20T12:05:43.420Z,2.28
2022-08-20T12:08:26.442Z,2.30
2022-08-20T12:10:57.192Z,2.70
2022-08-20T12:13:30.492Z,1.90
2022-08-20T12:15:59.363Z,2.22
2022-08-20T12:18:27.089Z,2.30
2022-08-20T12:20:54.807Z,2.40
2022-08-20T12:23:21.956Z,1.70
2022-08-20T12:25:49.970Z,2.40
2022-08-20T12:28:17.076Z,2.47
2022-08-20T12:30:50.214Z,2.13
2022-08-20T12:33:17.303Z,2.20
2022-08-20T12:35:44.506Z,2.00
2022-08-20T12:38:11.622Z,1.88
2022-08-20T12:40:39.346Z,2.10
2022-08-20T12:43:06.963Z,1.77
2022-08-20T12:45:34.801Z,2.10
2022-08-20T12:48:10.587Z,2.07
2022-08-20T12:50:41.032Z,1.48
2022-08-20T12:53:08.777Z,1.80
2022-08-20T12:55:36.036Z,1.50
2022-08-20T12:58:05.074Z,2.25
2022-08-20T13:00:38.027Z,1.70
2022-08-20T13:03:07.195Z,1.45
2022-08-20T13:05:35.693Z,1.27
2022-08-20T13:08:07.964Z,1.77
2022-08-20T13:10:38.278Z,1.70
2022-08-20T13:13:05.386Z,1.40
2022-08-20T13:15:33.198Z,1.60
2022-08-20T13:18:02.516Z,1.60
2022-08-20T13:20:34.562Z,1.90
2022-08-20T13:23:04.317Z,1.55
2022-08-20T13:25:32.443Z,1.80
2022-08-20T13:28:01.377Z,1.88
2022-08-20T13:30:29.419Z,1.45
2022-08-20T13:33:00.649Z,1.50
2022-08-20T13:35:27.915Z,1.90
2022-08-20T13:37:55.931Z,1.30
2022-08-20T13:40:23.231Z,1.77
2022-08-20T13:42:50.456Z,1.70
2022-08-20T13:45:17.768Z,1.60
2022-08-20T13:47:44.984Z,1.25
2022-08-20T13:50:15.327Z,1.20
2022-08-20T13:52:43.553Z,0.95
2022-08-20T13:55:13.471Z,1.92
2022-08-20T13:57:43.149Z,1.30
2022-08-20T14:00:14.541Z,1.20
2022-08-20T14:02:42.546Z,1.40
2022-08-20T14:05:11.206Z,1.45
2022-08-20T14:07:42.625Z,1.60
2022-08-20T14:10:12.883Z,1.60
2022-08-20T14:12:40.027Z,1.50
2022-08-20T14:15:11.832Z,1.27
2022-08-20T14:17:42.823Z,1.45
2022-08-20T14:20:16.007Z,1.55
2022-08-20T14:22:45.144Z,1.80
2022-08-20T14:25:14.613Z,1.63
2022-08-20T14:27:42.947Z,1.43
2022-08-20T14:30:16.728Z,2.10
2022-08-20T14:32:44.272Z,1.83
2022-08-20T14:35:11.849Z,1.92
2022-08-20T14:37:42.860Z,1.80
2022-08-20T14:40:14.064Z,1.70
2022-08-20T14:42:43.263Z,1.75
2022-08-20T14:45:14.320Z,1.70
2022-08-20T14:47:51.886Z,1.40
2022-08-20T14:50:33.603Z,1.80
2022-08-20T14:53:01.271Z,1.50
2022-08-20T14:55:32.211Z,2.20
2022-08-20T14:57:59.529Z,1.77
2022-08-20T15:00:30.539Z,1.60
2022-08-20T15:02:58.292Z,1.65
2022-08-20T15:05:26.145Z,1.30
2022-08-20T15:08:23.194Z,1.85
2022-08-20T15:10:55.997Z,1.63
2022-08-20T15:13:23.061Z,1.60
2022-08-20T15:15:50.246Z,1.75
2022-08-20T15:18:18.510Z,2.27
2022-08-20T15:20:45.703Z,2.15
2022-08-20T15:23:12.899Z,1.67
2022-08-20T15:25:40.041Z,1.40
2022-08-20T15:28:09.593Z,1.58
2022-08-20T15:30:39.900Z,1.57
2022-08-20T15:33:07.723Z,1.80
2022-08-20T15:35:35.464Z,2.03
2022-08-20T15:38:02.646Z,1.75
2022-08-20T15:40:32.360Z,1.77
2022-08-20T15:43:01.746Z,1.73
2022-08-20T15:45:30.089Z,1.88
2022-08-20T15:48:09.314Z,1.70
2022-08-20T15:51:03.408Z,1.25
2022-08-20T15:53:42.470Z,1.80
2022-08-20T15:56:16.529Z,2.40
2022-08-20T15:58:58.959Z,1.77
2022-08-20T16:01:50.462Z,2.15
2022-08-20T16:04:51.250Z,1.67
2022-08-20T16:07:39.131Z,1.88
2022-08-20T16:10:17.136Z,2.00
2022-08-20T16:12:49.745Z,1.83
2022-08-20T16:15:35.671Z,2.33
2022-08-20T16:18:25.984Z,2.13
2022-08-20T16:21:00.597Z,3.30
2022-08-20T16:23:36.917Z,1.97
2022-08-20T16:26:15.935Z,2.00
2022-08-20T16:28:43.052Z,2.30
2022-08-20T16:31:14.486Z,2.35
2022-08-20T16:33:48.357Z,2.60
2022-08-20T16:36:28.941Z,2.00
2022-08-20T16:39:04.713Z,1.77
2022-08-20T16:41:37.993Z,2.45
2022-08-20T16:44:35.668Z,1.92
2022-08-20T16:47:21.228Z,2.15
2022-08-20T16:50:12.755Z,2.20
2022-08-20T16:52:42.494Z,1.40
2022-08-20T16:55:10.298Z,1.70
2022-08-20T16:57:37.669Z,2.42
2022-08-20T17:00:16.373Z,1.63
2022-08-20T17:03:05.705Z,2.20
2022-08-20T17:05:38.928Z,2.10
2022-08-20T17:08:08.237Z,1.75
2022-08-20T17:10:54.594Z,1.95
2022-08-20T17:13:28.107Z,2.55
2022-08-20T17:16:02.414Z,2.13
2022-08-20T17:18:38.631Z,2.63
2022-08-20T17:21:14.801Z,2.53
2022-08-20T17:23:56.313Z,2.20
2022-08-20T17:26:35.332Z,2.45
2022-08-20T17:29:23.913Z,2.07
2022-08-20T17:32:01.391Z,2.33
2022-08-20T17:34:32.798Z,2.20
2022-08-20T17:37:19.870Z,2.28
2022-08-20T17:39:51.924Z,2.97
2022-08-20T17:42:25.603Z,2.50
2022-08-20T17:45:21.564Z,3.17
2022-08-20T17:47:49.059Z,3.00
2022-08-20T17:50:20.133Z,2.67
2022-08-20T17:52:58.837Z,2.80
2022-08-20T17:55:26.477Z,3.30
2022-08-20T17:57:57.809Z,2.92
2022-08-20T18:00:27.972Z,3.20
2022-08-20T18:03:09.112Z,2.72
2022-08-20T18:05:38.767Z,3.30
2022-08-20T18:08:17.176Z,3.33
2022-08-20T18:10:59.836Z,3.70
2022-08-20T18:14:08.758Z,3.55
2022-08-20T18:17:10.665Z,3.58
2022-08-20T18:19:56.358Z,3.17
2022-08-20T18:22:28.824Z,3.73
2022-08-20T18:25:11.120Z,3.22
2022-08-20T18:27:46.361Z,3.35
2022-08-20T18:30:21.032Z,3.70
2022-08-20T18:32:59.899Z,4.13
2022-08-20T18:35:45.761Z,3.60
2022-08-20T18:38:28.269Z,3.35
2022-08-20T18:41:26.757Z,3.70
2022-08-20T18:44:11.121Z,3.58
2022-08-20T18:46:53.804Z,3.35
2022-08-20T18:49:30.425Z,3.80
2022-08-20T18:52:07.734Z,3.45
2022-08-20T18:54:35.421Z,3.60
2022-08-20T18:57:40.630Z,3.28
2022-08-20T19:00:16.646Z,3.58
2022-08-20T19:02:58.932Z,3.40
2022-08-20T19:05:36.884Z,3.25
2022-08-20T19:08:05.848Z,3.88
2022-08-20T19:10:54.027Z,3.53
2022-08-20T19:13:46.233Z,3.25
2022-08-20T19:16:22.016Z,3.57
2022-08-20T19:18:54.890Z,3.42
2022-08-20T19:21:26.368Z,4.03
2022-08-20T19:23:57.840Z,3.35
2022-08-20T19:26:28.795Z,3.42
2022-08-20T19:29:02.350Z,3.33
2022-08-20T19:31:34.661Z,3.58
2022-08-20T19:34:19.924Z,3.40
2022-08-20T19:37:09.114Z,3.05
2022-08-20T19:39:50.917Z,3.67
2022-08-20T19:42:32.972Z,3.53
2022-08-20T19:45:02.955Z,3.47
2022-08-20T19:47:33.698Z,4.25
2022-08-20T19:50:26.390Z,3.97
2022-08-20T19:53:14.552Z,3.90
2022-08-20T19:55:42.252Z,4.47
2022-08-20T19:58:16.815Z,4.45
2022-08-20T20:00:55.451Z,5.63
2022-08-20T20:03:26.009Z,4.88
2022-08-20T20:06:16.573Z,4.90
2022-08-20T20:08:58.535Z,4.53
2022-08-20T20:11:45.082Z,4.32
2022-08-20T20:14:15.013Z,4.95
2022-08-20T20:16:42.591Z,5.32
2022-08-20T20:19:28.460Z,5.70
2022-08-20T20:22:19.089Z,5.50
2022-08-20T20:24:57.552Z,5.45
2022-08-20T20:27:26.838Z,5.60
2022-08-20T20:30:03.834Z,5.40
2022-08-20T20:32:33.821Z,5.70
2022-08-20T20:35:04.786Z,5.20
2022-08-20T20:37:49.656Z,5.75
2022-08-20T20:40:30.966Z,5.22
2022-08-20T20:43:05.228Z,5.13
2022-08-20T20:45:35.805Z,5.55
2022-08-20T20:48:14.510Z,4.87
2022-08-20T20:50:42.337Z,5.57
2022-08-20T20:53:09.755Z,5.60
2022-08-20T20:55:38.723Z,4.78
2022-08-20T20:58:06.014Z,4.95
2022-08-20T21:00:34.507Z,4.83
2022-08-20T21:03:04.387Z,5.35
2022-08-20T21:05:32.469Z,4.53
2022-08-20T21:08:06.065Z,4.50
2022-08-20T21:10:37.083Z,4.15
2022-08-20T21:13:08.070Z,4.63
2022-08-20T21:15:37.806Z,4.20
2022-08-20T21:18:06.824Z,4.88
2022-08-20T21:20:34.236Z,4.00
2022-08-20T21:23:01.487Z,3.90
2022-08-20T21:25:31.402Z,4.40
2022-08-20T21:27:58.709Z,4.35
2022-08-20T21:30:26.601Z,4.50
2022-08-20T21:32:54.078Z,4.15
2022-08-20T21:35:21.433Z,4.65
2022-08-20T21:37:48.701Z,4.17
2022-08-20T21:40:18.091Z,4.93
2022-08-20T21:42:46.432Z,5.40
2022-08-20T21:45:18.698Z,4.90
2022-08-20T21:47:49.120Z,5.22
2022-08-20T21:50:18.631Z,4.50
2022-08-20T21:52:52.491Z,4.55
2022-08-20T21:55:29.895Z,4.75
2022-08-20T21:57:58.608Z,4.68
2022-08-20T22:00:57.874Z,5.38
2022-08-20T22:03:32.382Z,4.83
2022-08-20T22:06:00.928Z,5.00
2022-08-20T22:08:28.482Z,4.38
2022-08-20T22:10:57.759Z,3.70
2022-08-20T22:13:31.280Z,3.33
2022-08-20T22:16:01.071Z,3.13
2022-08-20T22:18:28.321Z,3.28
2022-08-20T22:20:55.841Z,3.25
2022-08-20T22:23:23.537Z,3.35
2022-08-20T22:25:51.317Z,3.90
2022-08-20T22:28:19.172Z,3.07
2022-08-20T22:30:46.662Z,3.00
2022-08-20T22:33:19.892Z,3.50
2022-08-20T22:35:49.414Z,3.17
2022-08-20T22:38:17.187Z,2.83
2022-08-20T22:40:47.753Z,3.10
2022-08-20T22:43:15.773Z,2.50
2022-08-20T22:45:45.634Z,3.70
2022-08-20T22:48:16.025Z,3.00
2022-08-20T22:50:43.354Z,3.22
2022-08-20T22:53:12.146Z,2.97
2022-08-20T22:55:39.358Z,2.60
2022-08-20T22:58:07.196Z,3.05
2022-08-20T23:00:35.046Z,3.03
2022-08-20T23:03:04.052Z,2.88
2022-08-20T23:05:33.579Z,3.00
2022-08-20T23:08:01.225Z,2.90
2022-08-20T23:10:31.184Z,3.15
2022-08-20T23:15:50.259Z,3.17
2022-08-20T23:18:19.461Z,3.37
2022-08-20T23:20:50.738Z,3.17
2022-08-20T23:23:18.741Z,3.10
2022-08-20T23:25:46.428Z,3.40
2022-08-20T23:28:13.887Z,3.50
2022-08-20T23:30:40.991Z,2.40
2022-08-20T23:33:08.427Z,2.85
2022-08-20T23:35:38.608Z,3.42
2022-08-20T23:38:06.495Z,3.40
2022-08-20T23:40:34.626Z,3.13
2022-08-20T23:43:01.866Z,2.87
2022-08-20T23:45:29.992Z,3.42
2022-08-20T23:47:57.360Z,2.90
2022-08-20T23:50:27.523Z,3.20
2022-08-20T23:52:56.102Z,2.90
2022-08-20T23:55:23.668Z,3.13
2022-08-20T23:57:51.159Z,3.35
